Time;durP1;ratioP1;P1;durP2;ratioP2;P2;SDS_P1;SDS_P2;PMS_P1;PMS_P2;Temp;Humidity;BMP_temperature;BMP_pressure;BME280_temperature;BME280_humidity;BME280_pressure;Samples;Min_cycle;Max_cycle;Signal;HPM_P1;HPM_P2
2023/06/05 00:00:52;;;;;;;8.18;7.22;;;;;;;16.89;63.64;99423.91;5146772;27;20065;-76
2023/06/05 00:03:19;;;;;;;9.45;7.95;;;;;;;16.88;63.44;99430.25;5146933;27;20307;-76
2023/06/05 00:05:45;;;;;;;10.32;7.10;;;;;;;16.65;63.54;99397.25;5145806;27;20081;-76
2023/06/05 00:08:14;;;;;;;8.80;7.60;;;;;;;16.64;63.74;99386.69;5146668;28;20054;-76
2023/06/05 00:10:41;;;;;;;9.38;7.88;;;;;;;16.83;63.77;99429.75;5145765;28;20322;-76
2023/06/05 00:13:08;;;;;;;7.78;6.97;;;;;;;16.82;64.22;99427.22;5146918;28;20034;-76
2023/06/05 00:15:35;;;;;;;8.20;6.60;;;;;;;16.80;63.96;99429.16;5145720;28;20076;-76
2023/06/05 00:18:03;;;;;;;10.50;7.75;;;;;;;16.80;63.69;99429.16;5146031;28;20050;-76
2023/06/05 00:20:31;;;;;;;8.18;7.38;;;;;;;16.80;64.08;99427.34;5145725;28;20234;-75
2023/06/05 00:22:57;;;;;;;9.15;7.78;;;;;;;16.55;64.01;99396.28;5146805;28;20102;-76
2023/06/05 00:25:26;;;;;;;9.35;8.40;;;;;;;16.79;64.15;99427.44;5145618;28;20039;-75
2023/06/05 00:27:52;;;;;;;9.73;8.82;;;;;;;16.74;64.31;99422.47;5146452;28;20093;-75
2023/06/05 00:30:19;;;;;;;10.20;9.20;;;;;;;16.70;64.66;99420.16;5145606;28;20047;-75
2023/06/05 00:32:46;;;;;;;9.60;8.68;;;;;;;16.35;64.61;99379.13;5145610;28;20042;-76
2023/06/05 00:35:13;;;;;;;10.60;9.27;;;;;;;16.67;64.40;99421.25;5146407;28;20230;-76
2023/06/05 00:37:40;;;;;;;10.43;9.45;;;;;;;16.70;64.43;99415.66;5146672;28;20057;-76
2023/06/05 00:40:08;;;;;;;10.05;9.02;;;;;;;16.68;64.61;99421.13;5146067;28;20039;-76
2023/06/05 00:42:37;;;;;;;10.18;8.88;;;;;;;16.66;64.47;99415.03;5145505;28;20344;-76
2023/06/05 00:45:04;;;;;;;9.82;8.93;;;;;;;16.65;64.24;99413.31;5145282;28;20039;-76
2023/06/05 00:47:31;;;;;;;11.00;10.00;;;;;;;16.64;64.09;99410.75;5146006;27;20047;-76
2023/06/05 00:49:59;;;;;;;12.43;11.20;;;;;;;16.56;64.64;99414.03;5146280;28;20043;-75
2023/06/05 00:52:26;;;;;;;10.90;9.80;;;;;;;16.51;64.47;99402.84;5146499;28;20092;-75
2023/06/05 00:54:55;;;;;;;11.23;9.82;;;;;;;16.37;64.62;99381.69;5146523;28;20035;-76
2023/06/05 00:57:24;;;;;;;10.02;8.93;;;;;;;16.54;64.60;99412.47;5149352;27;20049;-75
2023/06/05 00:59:53;;;;;;;9.77;8.77;;;;;;;16.60;64.90;99417.31;5149266;27;20043;-75
2023/06/05 01:02:20;;;;;;;10.88;8.40;;;;;;;16.63;64.23;99419.75;5150352;27;20035;-75
2023/06/05 01:04:47;;;;;;;8.73;7.70;;;;;;;16.66;64.22;99415.03;5150184;27;20043;-75
2023/06/05 01:07:16;;;;;;;9.75;8.75;;;;;;;16.68;64.51;99420.28;5149974;27;20051;-76
2023/06/05 01:09:44;;;;;;;8.52;7.72;;;;;;;16.49;64.33;99383.38;5150219;27;20043;-76
2023/06/05 01:12:21;;;;;;;8.73;7.82;;;;;;;16.74;64.65;99416.25;5150430;27;20187;-75
2023/06/05 01:14:51;;;;;;;7.93;7.22;;;;;;;16.54;64.43;99369.66;5149004;27;20045;-76
2023/06/05 01:17:20;;;;;;;8.80;7.25;;;;;;;16.75;64.47;99410.78;5149801;27;20176;-76
2023/06/05 01:19:49;;;;;;;10.68;9.60;;;;;;;16.72;64.38;99408.34;5150307;27;20039;-75
2023/06/05 01:22:17;;;;;;;11.00;9.75;;;;;;;16.73;64.49;99409.22;5149648;27;20043;-76
2023/06/05 01:24:45;;;;;;;12.27;11.25;;;;;;;16.70;64.17;99406.78;5150117;27;20088;-76
2023/06/05 01:27:16;;;;;;;13.20;12.05;;;;;;;16.32;64.63;99357.97;5148567;27;20027;-75
2023/06/05 01:29:52;;;;;;;12.70;11.50;;;;;;;16.66;64.73;99407.03;5148714;27;20058;-75
2023/06/05 01:32:24;;;;;;;12.75;11.65;;;;;;;16.19;64.82;99332.31;5148652;27;20042;-75
2023/06/05 01:34:53;;;;;;;14.32;13.02;;;;;;;16.65;64.52;99399.09;5149457;27;20099;-75
2023/06/05 01:37:24;;;;;;;15.68;14.25;;;;;;;16.60;64.67;99404.81;5148538;27;20303;-76
2023/06/05 01:39:55;;;;;;;14.55;13.15;;;;;;;16.57;65.00;99406.88;5149504;27;20055;-76
2023/06/05 01:42:24;;;;;;;14.68;13.27;;;;;;;16.61;64.75;99408.31;5149860;27;20088;-76
2023/06/05 01:44:52;;;;;;;14.15;12.80;;;;;;;16.59;65.05;99413.78;5149122;27;20123;-75
2023/06/05 01:47:18;;;;;;;14.60;13.20;;;;;;;16.63;64.88;99415.25;5149172;27;20047;-76
2023/06/05 01:49:45;;;;;;;14.35;12.98;;;;;;;16.58;64.69;99411.25;5148326;27;20034;-76
2023/06/05 01:52:12;;;;;;;15.13;13.73;;;;;;;16.56;65.01;99402.47;5149453;27;20271;-76
2023/06/05 01:54:42;;;;;;;15.38;13.98;;;;;;;16.50;64.81;99394.94;5148243;27;20055;-77
2023/06/05 01:57:10;;;;;;;15.23;13.82;;;;;;;16.49;65.18;99398.59;5149612;27;20035;-77
2023/06/05 01:59:37;;;;;;;13.85;12.55;;;;;;;16.47;65.40;99400.53;5148153;27;20126;-77
2023/06/05 02:02:04;;;;;;;13.43;12.32;;;;;;;16.47;65.20;99403.22;5149351;27;20100;-77
2023/06/05 02:04:31;;;;;;;13.57;12.32;;;;;;;16.22;64.91;99356.16;5148834;27;20031;-77
2023/06/05 02:07:03;;;;;;;14.07;12.77;;;;;;;16.46;64.98;99396.16;5148903;27;20039;-77
2023/06/05 02:09:32;;;;;;;14.63;13.18;;;;;;;16.48;64.99;99399.56;5148178;27;20087;-76
2023/06/05 02:12:03;;;;;;;13.90;12.60;;;;;;;16.44;65.09;99400.78;5148632;27;20035;-76
2023/06/05 02:14:35;;;;;;;13.73;12.43;;;;;;;16.18;65.25;99363.56;5148954;27;20070;-76
2023/06/05 02:17:04;;;;;;;14.88;13.50;;;;;;;16.11;65.19;99365.00;5147749;27;20114;-75
2023/06/05 02:19:31;;;;;;;15.52;14.07;;;;;;;16.43;65.17;99399.06;5148864;27;20050;-76
2023/06/05 02:21:58;;;;;;;15.35;13.85;;;;;;;16.43;65.52;99396.41;5149074;27;20035;-75
2023/06/05 02:24:25;;;;;;;14.80;13.30;;;;;;;15.82;65.17;99304.94;5147576;27;20047;-76
2023/06/05 02:26:52;;;;;;;14.63;13.32;;;;;;;16.46;64.89;99398.84;5148604;27;20315;-75
2023/06/05 02:29:19;;;;;;;14.18;12.63;;;;;;;16.10;65.04;99341.91;5148693;27;20031;-76
2023/06/05 02:31:47;;;;;;;12.60;11.32;;;;;;;16.43;65.33;99393.72;5148085;27;20070;-76
2023/06/05 02:34:16;;;;;;;13.43;12.20;;;;;;;16.43;65.01;99397.25;5148256;27;20051;-76
2023/06/05 02:36:45;;;;;;;13.40;12.10;;;;;;;16.44;64.84;99395.44;5147611;27;20035;-76
2023/06/05 02:39:12;;;;;;;15.13;12.23;;;;;;;16.24;65.04;99356.88;5148705;27;20336;-76
2023/06/05 02:41:39;;;;;;;14.18;12.88;;;;;;;16.04;64.81;99324.53;5148374;27;20051;-76
2023/06/05 02:44:05;;;;;;;13.48;12.18;;;;;;;16.42;64.64;99392.88;5147930;27;20118;-76
2023/06/05 02:46:32;;;;;;;13.55;11.38;;;;;;;16.40;64.59;99397.50;5148246;27;20291;-76
2023/06/05 02:49:00;;;;;;;11.60;10.50;;;;;;;16.36;64.63;99396.03;5148403;27;20119;-76
2023/06/05 02:51:27;;;;;;;13.27;11.95;;;;;;;16.35;64.88;99394.31;5148501;27;20050;-76
2023/06/05 02:53:54;;;;;;;11.07;9.95;;;;;;;16.32;64.59;99387.41;5147049;27;20043;-76
2023/06/05 02:56:21;;;;;;;12.20;10.93;;;;;;;16.34;64.53;99392.63;5146970;27;20051;-76
2023/06/05 02:58:48;;;;;;;12.82;11.50;;;;;;;16.29;64.75;99392.97;5129811;27;20049;-77
2023/06/05 03:01:15;;;;;;;10.73;9.63;;;;;;;16.15;65.06;99373.63;5147728;27;20096;-77
2023/06/05 03:03:42;;;;;;;10.60;8.95;;;;;;;16.18;64.61;99392.13;5147915;27;20043;-77
2023/06/05 03:06:11;;;;;;;9.95;8.73;;;;;;;16.18;64.95;99382.28;5148098;27;20031;-77
2023/06/05 03:08:38;;;;;;;11.07;9.98;;;;;;;15.96;64.82;99352.81;5147880;27;20070;-77
2023/06/05 03:11:05;;;;;;;10.52;9.02;;;;;;;16.14;64.33;99386.16;5147811;27;20051;-77
2023/06/05 03:13:32;;;;;;;11.48;10.27;;;;;;;16.13;64.30;99384.44;5147447;27;20035;-77
2023/06/05 03:16:01;;;;;;;12.07;10.98;;;;;;;16.11;64.45;99391.75;5147719;27;20054;-77
2023/06/05 03:18:28;;;;;;;10.98;9.88;;;;;;;16.09;64.34;99391.00;5147319;27;20338;-77
2023/06/05 03:20:56;;;;;;;10.85;9.75;;;;;;;16.09;64.50;99391.00;5147858;27;20035;-77
2023/06/05 03:23:25;;;;;;;11.55;10.30;;;;;;;15.64;64.39;99309.84;5147194;27;20043;-77
2023/06/05 03:25:52;;;;;;;12.35;11.10;;;;;;;15.77;64.71;99333.84;5147198;27;20042;-77
2023/06/05 03:28:20;;;;;;;12.90;11.68;;;;;;;16.12;64.89;99384.56;5147245;27;20046;-77
2023/06/05 03:30:47;;;;;;;13.15;10.98;;;;;;;15.79;64.87;99330.06;5147482;27;20045;-77
2023/06/05 03:33:14;;;;;;;11.65;10.50;;;;;;;16.11;65.20;99381.03;5147094;27;20137;-77
2023/06/05 03:35:42;;;;;;;13.05;11.68;;;;;;;16.12;65.40;99382.75;5147064;27;20039;-77
2023/06/05 03:38:09;;;;;;;12.25;11.07;;;;;;;16.12;65.13;99382.75;5146185;27;20327;-77
2023/06/05 03:40:39;;;;;;;12.60;11.32;;;;;;;16.14;65.08;99378.13;5147214;27;20054;-77
2023/06/05 03:43:05;;;;;;;13.43;11.18;;;;;;;16.15;65.54;99382.50;5146922;27;20063;-77
2023/06/05 03:45:32;;;;;;;13.70;12.38;;;;;;;16.12;65.38;99380.06;5146769;27;20050;-77
2023/06/05 03:48:00;;;;;;;13.32;12.02;;;;;;;16.06;65.75;99377.88;5146060;27;20083;-77
2023/06/05 03:50:28;;;;;;;12.32;11.10;;;;;;;16.05;65.62;99376.19;5145956;27;20038;-77
2023/06/05 03:53:01;;;;;;;13.18;11.75;;;;;;;16.06;65.58;99382.38;5146879;27;20046;-77
2023/06/05 03:55:40;;;;;;;12.57;11.40;;;;;;;16.01;65.76;99375.56;5145926;27;20043;-77
2023/06/05 03:58:13;;;;;;;12.15;11.00;;;;;;;15.42;66.35;99278.59;5146953;27;20047;-77
2023/06/05 04:00:40;;;;;;;11.63;10.60;;;;;;;16.00;65.97;99378.34;5147071;27;20035;-77
2023/06/05 04:03:08;;;;;;;11.73;10.63;;;;;;;15.99;65.92;99374.81;5147077;27;20288;-77
2023/06/05 04:05:35;;;;;;;12.05;10.88;;;;;;;16.01;66.02;99380.91;5146875;27;20043;-77
2023/06/05 04:08:02;;;;;;;11.63;10.63;;;;;;;16.00;66.36;99379.19;5146612;27;20031;-77
2023/06/05 04:10:28;;;;;;;13.15;11.95;;;;;;;16.01;65.90;99385.41;5145787;27;20035;-77
2023/06/05 04:12:55;;;;;;;13.52;12.23;;;;;;;15.97;66.40;99383.94;5146760;28;20072;-77
2023/06/05 04:15:24;;;;;;;13.48;12.18;;;;;;;15.96;66.31;99387.56;5147088;28;20083;-77
2023/06/05 04:17:51;;;;;;;13.20;11.85;;;;;;;15.95;66.10;99383.19;5146507;28;20031;-77
2023/06/05 04:20:17;;;;;;;12.57;11.38;;;;;;;15.95;66.16;99385.88;5145622;28;20043;-77
2023/06/05 04:22:45;;;;;;;12.60;11.30;;;;;;;15.96;66.36;99390.25;5146477;28;20039;-77
2023/06/05 04:25:13;;;;;;;12.80;11.52;;;;;;;15.94;66.36;99395.72;5145259;28;20050;-77
2023/06/05 04:27:40;;;;;;;12.38;11.18;;;;;;;15.61;66.39;99347.47;5146616;28;20237;-77
2023/06/05 04:30:09;;;;;;;13.32;11.98;;;;;;;15.69;66.40;99343.28;5146458;28;20035;-77
2023/06/05 04:32:38;;;;;;;13.38;12.18;;;;;;;15.93;66.42;99383.31;5149840;27;20043;-77
2023/06/05 04:35:06;;;;;;;13.60;12.40;;;;;;;15.68;66.51;99336.25;5149539;27;20366;-77
2023/06/05 04:37:32;;;;;;;13.05;11.73;;;;;;;15.60;66.15;99341.28;5150829;27;20104;-77
2023/06/05 04:39:59;;;;;;;12.88;11.65;;;;;;;15.94;66.54;99381.50;5150728;27;20043;-77
2023/06/05 04:42:26;;;;;;;11.98;10.77;;;;;;;15.95;66.24;99372.50;5150369;27;20289;-77
2023/06/05 04:44:58;;;;;;;16.33;13.00;;;;;;;15.98;66.54;99370.44;5150244;27;20049;-77
2023/06/05 04:47:25;;;;;;;14.52;13.38;;;;;;;16.00;66.10;99373.84;5150530;27;20109;-77
2023/06/05 04:49:54;;;;;;;16.25;14.68;;;;;;;16.01;66.07;99378.22;5150492;27;20198;-77
2023/06/05 04:52:21;;;;;;;16.38;14.88;;;;;;;15.99;66.28;99374.81;5149810;27;20118;-77
2023/06/05 04:54:48;;;;;;;17.52;15.88;;;;;;;15.89;66.44;99359.63;5150694;27;20050;-77
2023/06/05 04:57:16;;;;;;;17.48;15.95;;;;;;;15.96;66.27;99369.72;5149331;27;20314;-77
2023/06/05 04:59:43;;;;;;;16.65;15.15;;;;;;;15.95;66.57;99369.84;5149274;27;20039;-76
2023/06/05 05:02:10;;;;;;;17.58;15.88;;;;;;;15.98;66.00;99365.09;5150506;27;20039;-77
2023/06/05 05:04:36;;;;;;;15.82;14.38;;;;;;;16.04;65.98;99372.66;5148990;27;20084;-77
2023/06/05 05:07:05;;;;;;;14.93;13.60;;;;;;;16.10;65.96;99373.16;5149785;27;20241;-77
2023/06/05 05:09:32;;;;;;;15.15;13.75;;;;;;;15.84;65.84;99332.41;5149060;27;20096;-77
2023/06/05 05:11:59;;;;;;;16.17;14.77;;;;;;;16.14;65.40;99379.97;5150096;27;20042;-77
2023/06/05 05:14:27;;;;;;;15.05;13.65;;;;;;;16.13;65.71;99384.44;5149797;27;20056;-77
2023/06/05 05:16:55;;;;;;;15.55;14.15;;;;;;;15.85;65.37;99321.59;5149620;27;20042;-77
2023/06/05 05:19:21;;;;;;;15.38;13.65;;;;;;;16.15;65.25;99369.16;5149107;27;20054;-77
2023/06/05 05:21:48;;;;;;;15.63;14.20;;;;;;;16.17;65.38;99363.69;5150070;27;20179;-77
2023/06/05 05:24:16;;;;;;;12.27;11.15;;;;;;;15.98;64.90;99332.19;5149698;27;20275;-77
2023/06/05 05:26:43;;;;;;;14.82;13.43;;;;;;;16.21;64.98;99367.81;5148480;27;20043;-77
2023/06/05 05:29:10;;;;;;;12.20;11.10;;;;;;;16.22;64.89;99373.03;5149484;27;20176;-77
2023/06/05 05:31:37;;;;;;;12.18;10.90;;;;;;;16.23;64.78;99368.53;5149428;27;20346;-77
2023/06/05 05:34:04;;;;;;;11.73;10.70;;;;;;;16.25;64.85;99369.28;5149455;27;20034;-77
2023/06/05 05:36:33;;;;;;;11.38;10.38;;;;;;;16.28;64.74;99374.38;5149259;27;20049;-77
2023/06/05 05:39:00;;;;;;;11.43;10.30;;;;;;;16.29;65.03;99376.94;5148531;27;20236;-77
2023/06/05 05:41:28;;;;;;;11.55;10.32;;;;;;;15.51;64.53;99243.16;5149743;27;20069;-77
2023/06/05 05:43:55;;;;;;;11.35;10.25;;;;;;;16.40;64.86;99380.59;5147769;27;20062;-77
2023/06/05 05:46:22;;;;;;;12.35;11.07;;;;;;;16.43;64.87;99381.19;5148874;27;20046;-77
2023/06/05 05:48:49;;;;;;;11.55;10.52;;;;;;;16.20;64.66;99337.56;5148217;27;20039;-77
2023/06/05 05:51:15;;;;;;;11.50;10.30;;;;;;;16.49;64.35;99385.22;5149696;27;20039;-77
2023/06/05 05:53:42;;;;;;;11.68;10.35;;;;;;;16.50;64.00;99385.09;5149020;27;20043;-77
2023/06/05 05:56:09;;;;;;;10.15;9.15;;;;;;;16.51;63.96;99393.97;5149646;27;20043;-77
2023/06/05 05:58:37;;;;;;;9.00;8.10;;;;;;;16.48;64.05;99380.84;5149268;27;20035;-77
2023/06/05 06:01:04;;;;;;;11.23;9.18;;;;;;;16.48;64.50;99386.19;5148888;27;20035;-77
2023/06/05 06:03:34;;;;;;;9.90;7.63;;;;;;;16.50;64.42;99386.91;5149135;27;20199;-77
2023/06/05 06:06:02;;;;;;;8.23;7.43;;;;;;;16.49;64.11;99396.78;5147956;27;20050;-77
2023/06/05 06:08:29;;;;;;;10.32;7.90;;;;;;;16.51;64.25;99393.97;5148536;27;20100;-77
2023/06/05 06:10:56;;;;;;;10.95;9.85;;;;;;;16.51;64.23;99381.44;5149166;27;20051;-77
2023/06/05 06:13:22;;;;;;;8.65;7.57;;;;;;;16.27;64.51;99361.97;5148704;27;20035;-76
2023/06/05 06:15:51;;;;;;;9.57;8.57;;;;;;;16.51;64.34;99391.28;5148902;27;20113;-77
2023/06/05 06:18:19;;;;;;;10.73;8.60;;;;;;;16.51;64.41;99386.78;5147718;27;20031;-77
2023/06/05 06:20:47;;;;;;;10.82;7.40;;;;;;;16.46;64.97;99388.97;5149009;27;20272;-77
2023/06/05 06:23:13;;;;;;;9.00;7.82;;;;;;;16.47;64.62;99387.16;5148859;27;20043;-77
2023/06/05 06:25:40;;;;;;;10.27;9.25;;;;;;;16.45;64.78;99397.13;5148578;27;20051;-76
2023/06/05 06:28:07;;;;;;;8.45;7.60;;;;;;;16.47;64.86;99382.66;5147272;27;20118;-77
2023/06/05 06:30:35;;;;;;;9.77;8.77;;;;;;;16.50;64.60;99395.78;5147477;27;20118;-76
2023/06/05 06:33:04;;;;;;;9.60;8.27;;;;;;;16.29;65.36;99352.88;5148391;27;20043;-77
2023/06/05 06:35:31;;;;;;;10.85;9.00;;;;;;;16.27;65.40;99352.13;5148181;27;20299;-77
2023/06/05 06:37:59;;;;;;;9.48;8.57;;;;;;;16.52;65.16;99393.84;5147164;27;20038;-77
2023/06/05 06:40:26;;;;;;;9.10;8.02;;;;;;;16.52;65.47;99385.81;5148209;27;20045;-77
2023/06/05 06:42:52;;;;;;;9.02;8.10;;;;;;;16.50;65.49;99393.13;5147846;27;20088;-77
2023/06/05 06:45:21;;;;;;;9.90;8.90;;;;;;;15.87;65.76;99289.41;5148062;27;20050;-77
2023/06/05 06:47:48;;;;;;;11.52;10.32;;;;;;;16.44;65.46;99382.06;5147836;27;20039;-77
2023/06/05 06:50:16;;;;;;;10.32;9.35;;;;;;;16.48;65.93;99389.72;5148102;27;20295;-77
2023/06/05 06:52:43;;;;;;;8.88;7.93;;;;;;;16.50;65.67;99389.59;5146829;27;20092;-77
2023/06/05 06:55:10;;;;;;;10.32;9.27;;;;;;;16.51;65.62;99393.97;5147074;27;20077;-77
2023/06/05 06:57:38;;;;;;;11.63;10.20;;;;;;;16.54;65.83;99386.56;5147620;27;20035;-77
2023/06/05 07:00:09;;;;;;;11.45;10.38;;;;;;;16.55;66.24;99392.75;5146857;27;20039;-77
2023/06/05 07:02:37;;;;;;;10.80;9.70;;;;;;;16.52;66.22;99383.16;5148152;27;20298;-77
2023/06/05 07:05:04;;;;;;;9.23;8.27;;;;;;;16.53;66.07;99395.56;5146612;27;20203;-77
2023/06/05 07:07:32;;;;;;;10.57;9.35;;;;;;;16.54;66.10;99389.22;5146500;27;20072;-77
2023/06/05 07:09:59;;;;;;;9.98;9.00;;;;;;;16.56;66.21;99389.97;5147387;27;20096;-77
2023/06/05 07:12:26;;;;;;;9.75;8.75;;;;;;;16.62;66.02;99386.78;5146450;27;20139;-77
2023/06/05 07:14:54;;;;;;;10.98;9.88;;;;;;;16.68;66.03;99388.16;5147260;27;20039;-77
2023/06/05 07:17:21;;;;;;;11.93;10.82;;;;;;;16.73;66.15;99385.97;5147681;27;20217;-76
2023/06/05 07:19:47;;;;;;;11.68;10.45;;;;;;;16.77;65.77;99382.06;5146408;27;20050;-77
2023/06/05 07:22:15;;;;;;;12.13;9.38;;;;;;;16.83;65.68;99384.25;5146276;27;20039;-77
2023/06/05 07:24:43;;;;;;;10.70;9.60;;;;;;;16.90;65.49;99387.28;5146264;27;20291;-77
2023/06/05 07:27:10;;;;;;;12.18;10.65;;;;;;;16.93;65.80;99385.22;5147489;27;20191;-77
2023/06/05 07:29:37;;;;;;;10.65;9.38;;;;;;;16.99;65.42;99384.72;5147251;27;20039;-77
2023/06/05 07:32:06;;;;;;;10.15;9.10;;;;;;;17.10;65.45;99389.22;5146065;27;20095;-77
2023/06/05 07:34:34;;;;;;;11.63;8.50;;;;;;;16.53;64.74;99269.81;5147279;27;20096;-77
2023/06/05 07:37:01;;;;;;;9.45;8.27;;;;;;;17.28;64.92;99381.53;5145830;27;20091;-77
2023/06/05 07:39:29;;;;;;;14.63;9.70;;;;;;;17.35;64.57;99376.50;5147136;27;20043;-77
2023/06/05 07:41:57;;;;;;;19.95;8.15;;;;;;;17.19;64.14;99339.41;5146783;27;20173;-77
2023/06/05 07:44:24;;;;;;;13.65;10.77;;;;;;;17.50;64.48;99389.50;5145723;27;20055;-77
2023/06/05 07:46:51;;;;;;;16.33;10.30;;;;;;;17.53;64.24;99389.22;5147193;27;20057;-77
2023/06/05 07:49:19;;;;;;;12.07;9.95;;;;;;;16.96;63.99;99296.63;5145861;27;20294;-77
2023/06/05 07:51:48;;;;;;;9.63;8.63;;;;;;;17.59;64.28;99379.84;5146584;27;20043;-77
2023/06/05 07:54:16;;;;;;;13.80;8.98;;;;;;;17.67;64.07;99376.53;5145818;27;20070;-77
2023/06/05 07:56:44;;;;;;;10.02;9.02;;;;;;;17.73;64.00;99384.06;5146502;27;20085;-77
2023/06/05 07:59:14;;;;;;;10.07;9.05;;;;;;;17.76;63.68;99370.41;5147132;27;20260;-77
2023/06/05 08:01:41;;;;;;;11.50;9.23;;;;;;;17.55;63.61;99338.19;5146538;27;20054;-77
2023/06/05 08:04:09;;;;;;;9.85;8.60;;;;;;;17.78;63.76;99380.03;5146547;27;20039;-77
2023/06/05 08:06:37;;;;;;;8.65;7.82;;;;;;;17.79;63.59;99384.41;5146023;27;20043;-77
2023/06/05 08:09:04;;;;;;;8.77;7.85;;;;;;;17.81;63.76;99389.63;5145467;27;20046;-77
2023/06/05 08:11:31;;;;;;;8.73;7.93;;;;;;;17.80;63.54;99387.94;5146402;27;20049;-77
2023/06/05 08:13:58;;;;;;;10.38;7.60;;;;;;;17.78;63.24;99381.84;5146702;28;20080;-77
2023/06/05 08:16:27;;;;;;;7.80;6.55;;;;;;;17.56;62.44;99355.97;5146297;28;20291;-77
2023/06/05 08:18:53;;;;;;;7.93;6.35;;;;;;;17.74;62.53;99377.72;5146559;28;20035;-77
2023/06/05 08:21:20;;;;;;;6.45;5.85;;;;;;;17.74;62.35;99393.81;5145144;28;20047;-76
2023/06/05 08:23:47;;;;;;;7.88;7.07;;;;;;;17.40;62.23;99342.16;5145194;28;20043;-77
2023/06/05 08:26:14;;;;;;;8.88;6.05;;;;;;;17.71;62.51;99383.34;5146326;28;20050;-77
2023/06/05 08:28:41;;;;;;;9.18;6.38;;;;;;;17.70;62.72;99387.00;5146778;28;20046;-77
2023/06/05 08:31:09;;;;;;;9.25;6.60;;;;;;;17.76;62.05;99387.34;5146493;27;20043;-76
2023/06/05 08:33:38;;;;;;;8.18;6.60;;;;;;;17.82;62.06;99385.97;5146550;28;20034;-77
2023/06/05 08:36:06;;;;;;;7.05;6.35;;;;;;;17.90;62.37;99386.16;5146834;27;20035;-77
2023/06/05 08:38:35;;;;;;;8.13;6.53;;;;;;;17.95;61.69;99384.81;5146131;27;20039;-77
2023/06/05 08:41:05;;;;;;;10.32;6.82;;;;;;;17.46;61.67;99288.06;5145278;28;20034;-77
2023/06/05 08:43:32;;;;;;;8.15;6.47;;;;;;;18.16;61.48;99373.22;5146285;28;20051;-77
2023/06/05 08:45:59;;;;;;;9.05;6.25;;;;;;;18.34;61.08;99384.19;5146467;28;20291;-77
2023/06/05 08:48:26;;;;;;;8.70;6.32;;;;;;;18.40;60.73;99372.91;5146664;28;20038;-76
2023/06/05 08:50:55;;;;;;;8.95;6.65;;;;;;;18.47;60.38;99368.72;5146521;28;20069;-77
2023/06/05 08:53:26;;;;;;;8.05;6.65;;;;;;;18.20;60.22;99323.69;5146430;28;20043;-76
2023/06/05 08:55:56;;;;;;;29.58;8.25;;;;;;;18.58;60.05;99374.03;5146594;28;20108;-76
2023/06/05 08:58:24;;;;;;;10.60;6.25;;;;;;;18.69;60.32;99363.19;5145089;28;20035;-77
2023/06/05 09:00:51;;;;;;;13.52;8.50;;;;;;;18.78;59.72;99370.44;5146490;28;20039;-77
2023/06/05 09:03:20;;;;;;;14.63;7.85;;;;;;;18.84;59.68;99364.50;5146368;28;20043;-77
2023/06/05 09:05:47;;;;;;;10.73;7.53;;;;;;;18.94;59.14;99372.59;5146245;28;20050;-77
2023/06/05 09:08:17;;;;;;;10.63;6.72;;;;;;;18.84;58.73;99340.34;5144861;28;20035;-77
2023/06/05 09:10:44;;;;;;;8.73;6.75;;;;;;;19.06;58.85;99371.50;5146548;28;20043;-77
2023/06/05 09:13:11;;;;;;;9.18;6.60;;;;;;;19.09;58.64;99363.16;5146148;28;20290;-76
2023/06/05 09:15:38;;;;;;;10.75;7.85;;;;;;;18.98;58.80;99341.78;5146044;28;20236;-77
2023/06/05 09:18:08;;;;;;;8.88;6.35;;;;;;;18.96;58.24;99341.09;5148417;27;20039;-77
2023/06/05 09:20:35;;;;;;;6.65;5.93;;;;;;;19.10;58.87;99364.00;5149312;27;20043;-77
2023/06/05 09:23:04;;;;;;;9.55;5.68;;;;;;;18.98;58.39;99336.44;5148732;27;20269;-77
2023/06/05 09:25:48;;;;;;;5.90;4.85;;;;;;;18.98;57.68;99323.00;5149605;27;20306;-77
2023/06/05 09:28:16;;;;;;;6.30;5.28;;;;;;;19.27;58.64;99352.59;5146605;27;20043;-77
2023/06/05 09:30:57;;;;;;;6.70;5.82;;;;;;;19.36;57.13;99337.47;5149478;27;20275;-76
2023/06/05 09:33:25;;;;;;;6.22;5.15;;;;;;;18.89;57.63;99251.31;5150100;27;20055;-76
2023/06/05 09:36:05;;;;;;;8.15;5.93;;;;;;;19.57;55.12;99340.88;5148975;27;20035;-76
2023/06/05 09:38:32;;;;;;;9.18;5.13;;;;;;;19.05;56.37;99223.91;5147970;27;20390;-75
2023/06/05 09:41:05;;;;;;;7.28;5.13;;;;;;;19.85;55.18;99333.81;5149795;27;20042;-76
2023/06/05 09:43:32;;;;;;;7.15;5.40;;;;;;;19.91;55.80;99327.88;5148071;27;20055;-76
2023/06/05 09:45:59;;;;;;;12.07;6.72;;;;;;;20.00;55.77;99332.38;5149033;27;20043;-76
2023/06/05 09:48:27;;;;;;;7.78;6.97;;;;;;;19.95;55.67;99320.34;5148888;27;20137;-76
2023/06/05 09:50:54;;;;;;;9.45;8.45;;;;;;;20.01;55.93;99328.69;5148986;27;20265;-75
2023/06/05 09:53:21;;;;;;;9.73;8.60;;;;;;;19.82;56.13;99299.16;5148153;27;20034;-76
2023/06/05 09:55:49;;;;;;;9.55;7.53;;;;;;;20.02;56.37;99326.84;5147990;27;20092;-76
2023/06/05 09:58:18;;;;;;;10.57;8.38;;;;;;;19.71;56.28;99272.38;5148978;27;20039;-76
2023/06/05 10:00:46;;;;;;;9.25;8.20;;;;;;;20.07;56.54;99328.09;5149111;27;20050;-76
2023/06/05 10:03:17;;;;;;;19.13;8.07;;;;;;;20.11;56.58;99328.66;5149055;27;20035;-76
2023/06/05 10:05:45;;;;;;;12.15;9.35;;;;;;;20.11;56.15;99329.53;5148960;27;20068;-76
2023/06/05 10:08:14;;;;;;;10.63;8.77;;;;;;;20.08;56.92;99326.28;5148645;27;20035;-76
2023/06/05 10:10:42;;;;;;;15.35;7.78;;;;;;;19.92;56.81;99309.88;5130895;27;20291;-76
2023/06/05 10:13:11;;;;;;;8.05;7.25;;;;;;;19.99;56.08;99327.13;5148519;27;20194;-76
2023/06/05 10:15:41;;;;;;;8.57;7.70;;;;;;;19.58;56.06;99274.53;5147662;27;20109;-76
2023/06/05 10:18:09;;;;;;;7.60;6.75;;;;;;;19.91;56.53;99325.19;5147408;27;20295;-77
2023/06/05 10:20:37;;;;;;;9.48;6.50;;;;;;;19.76;56.38;99294.31;5148761;27;20092;-76
2023/06/05 10:23:06;;;;;;;10.77;6.38;;;;;;;19.94;55.79;99330.25;5148319;27;20207;-77
2023/06/05 10:25:36;;;;;;;7.13;5.97;;;;;;;19.68;56.02;99288.81;5148238;27;20115;-76
2023/06/05 10:28:24;;;;;;;9.27;5.95;;;;;;;19.87;54.42;99329.16;5147957;27;20238;-77
2023/06/05 10:31:25;;;;;;;7.45;5.40;;;;;;;19.61;54.24;99293.91;5148027;27;20050;-76
2023/06/05 10:34:20;;;;;;;9.38;5.53;;;;;;;19.73;53.70;99327.72;5148563;27;20038;-77
2023/06/05 10:37:03;;;;;;;8.88;4.80;;;;;;;19.44;54.14;99287.41;5148279;27;20057;-77
2023/06/05 10:39:31;;;;;;;10.70;6.32;;;;;;;19.55;55.78;99313.31;5147745;27;20043;-77
2023/06/05 10:41:58;;;;;;;7.53;5.78;;;;;;;19.66;55.52;99325.75;5148336;27;20049;-76
2023/06/05 10:44:40;;;;;;;5.25;4.75;;;;;;;19.06;55.05;99226.47;5147790;27;20061;-76
2023/06/05 10:47:42;;;;;;;12.48;6.50;;;;;;;19.51;55.15;99288.56;5129850;27;20039;-76
2023/06/05 10:50:30;;;;;;;7.38;6.03;;;;;;;19.75;54.84;99325.72;5147907;27;20315;-76
2023/06/05 10:52:58;;;;;;;8.20;4.90;;;;;;;19.74;55.93;99331.25;5148005;27;20081;-76
2023/06/05 10:55:27;;;;;;;8.23;5.55;;;;;;;19.78;56.08;99324.59;5147648;27;20054;-76
2023/06/05 10:58:05;;;;;;;7.05;5.18;;;;;;;19.82;55.69;99332.28;5147313;27;20043;-76
2023/06/05 11:00:32;;;;;;;6.93;5.05;;;;;;;19.85;56.06;99329.28;5147705;27;20261;-76
2023/06/05 11:03:00;;;;;;;10.90;5.90;;;;;;;19.84;55.97;99332.13;5147630;27;20088;-76
2023/06/05 11:05:30;;;;;;;8.43;5.63;;;;;;;19.52;56.27;99276.81;5147348;27;20114;-76
2023/06/05 11:08:12;;;;;;;6.82;5.57;;;;;;;19.86;56.10;99322.91;5147277;27;20054;-77
2023/06/05 11:10:59;;;;;;;6.18;5.22;;;;;;;19.90;56.68;99323.47;5147803;27;20042;-76
2023/06/05 11:13:27;;;;;;;8.02;5.57;;;;;;;19.92;56.37;99317.97;5146142;27;20039;-76
2023/06/05 11:15:56;;;;;;;5.05;4.45;;;;;;;19.91;56.37;99322.50;5147443;27;20089;-77
2023/06/05 11:18:34;;;;;;;5.72;4.45;;;;;;;19.96;55.66;99319.38;5146979;27;20042;-77
2023/06/05 11:21:02;;;;;;;5.75;4.07;;;;;;;19.99;55.96;99314.53;5147855;27;20100;-76
2023/06/05 11:23:29;;;;;;;7.03;5.07;;;;;;;19.49;56.02;99236.78;5146213;27;20039;-77
2023/06/05 11:26:37;;;;;;;11.43;5.80;;;;;;;20.02;55.85;99308.88;5146120;27;20092;-77
2023/06/05 11:29:12;;;;;;;16.92;6.35;;;;;;;19.92;56.09;99283.84;5146565;27;20117;-77
2023/06/05 11:31:39;;;;;;;7.43;5.30;;;;;;;20.10;56.57;99325.13;5147048;27;20088;-77